Time;durP1;ratioP1;P1;durP2;ratioP2;P2;SDS_P1;SDS_P2;PMS_P1;PMS_P2;Temp;Humidity;BMP_temperature;BMP_pressure;BME280_temperature;BME280_humidity;BME280_pressure;Samples;Min_cycle;Max_cycle;Signal;HPM_P1;HPM_P2
2021/06/20 07:31:36;;;;;;;6.05;4.30;;;16.30;99.90;;;;;;5367368;23;20040;-82
2021/06/20 07:34:04;;;;;;;6.28;4.55;;;16.30;99.90;;;;;;4906078;29;20104;-82
2021/06/20 07:36:31;;;;;;;7.13;4.30;;;16.40;99.90;;;;;;4906022;29;20103;-81
2021/06/20 07:38:58;;;;;;;7.50;4.47;;;16.40;99.90;;;;;;4904813;29;20052;-81
2021/06/20 07:41:27;;;;;;;7.32;4.07;;;16.40;99.90;;;;;;4909383;29;20057;-81
2021/06/20 07:43:54;;;;;;;7.32;4.55;;;16.50;99.90;;;;;;4897302;29;20061;-81
2021/06/20 07:46:21;;;;;;;7.95;4.43;;;16.60;99.90;;;;;;4901117;29;20056;-81
2021/06/20 07:48:48;;;;;;;8.98;3.90;;;16.70;99.90;;;;;;4901671;29;20053;-81
2021/06/20 07:51:15;;;;;;;6.47;4.07;;;16.80;99.90;;;;;;4897268;29;20096;-81
2021/06/20 07:53:41;;;;;;;9.60;4.40;;;16.90;99.90;;;;;;4897580;29;20072;-82
2021/06/20 07:56:09;;;;;;;7.22;3.83;;;17.10;99.90;;;;;;4905467;29;20159;-81
2021/06/20 07:58:36;;;;;;;7.18;4.15;;;17.20;99.90;;;;;;4904071;29;20158;-82
2021/06/20 08:01:03;;;;;;;8.70;4.43;;;17.30;99.90;;;;;;4907773;29;20452;-81
2021/06/20 08:03:32;;;;;;;4.75;3.30;;;17.40;99.90;;;;;;4900097;29;20105;-81
2021/06/20 08:05:59;;;;;;;8.60;4.13;;;17.50;99.90;;;;;;4909404;29;20511;-82
2021/06/20 08:08:26;;;;;;;6.45;3.15;;;17.60;99.90;;;;;;4897168;29;20056;-84
2021/06/20 08:10:53;;;;;;;6.38;3.33;;;17.70;99.90;;;;;;4905189;29;20119;-81
2021/06/20 08:13:20;;;;;;;9.73;3.45;;;17.80;99.90;;;;;;4898095;29;20120;-82
2021/06/20 08:15:46;;;;;;;5.80;3.10;;;17.80;99.90;;;;;;4900576;29;20132;-82
2021/06/20 08:18:14;;;;;;;5.38;3.25;;;17.90;99.90;;;;;;4907341;29;20331;-80
2021/06/20 08:20:41;;;;;;;5.97;2.90;;;18.00;99.90;;;;;;4905787;29;20051;-80
2021/06/20 08:23:08;;;;;;;5.50;2.97;;;18.10;99.90;;;;;;4914621;29;20297;-81
2021/06/20 08:25:35;;;;;;;5.93;2.92;;;18.20;99.90;;;;;;4912448;29;20044;-80
2021/06/20 08:28:02;;;;;;;6.88;2.42;;;18.20;99.90;;;;;;4901267;29;20108;-80
2021/06/20 08:30:29;;;;;;;6.18;2.60;;;18.30;99.90;;;;;;4903638;29;20684;-80
2021/06/20 08:32:56;;;;;;;5.65;3.45;;;18.30;99.90;;;;;;4893397;29;20052;-80
2021/06/20 08:35:23;;;;;;;5.13;2.67;;;18.30;99.90;;;;;;4884984;29;20529;-80
2021/06/20 08:37:50;;;;;;;5.35;2.55;;;18.30;99.90;;;;;;4907540;29;20485;-80
2021/06/20 08:40:17;;;;;;;5.40;2.60;;;18.20;99.90;;;;;;4889407;29;20056;-81
2021/06/20 08:42:44;;;;;;;5.22;2.70;;;18.20;99.90;;;;;;4894721;29;20057;-81
2021/06/20 08:45:14;;;;;;;4.95;2.75;;;18.20;99.90;;;;;;4891923;29;20084;-81
2021/06/20 08:47:42;;;;;;;6.43;2.67;;;18.20;99.90;;;;;;4893228;29;20063;-81
2021/06/20 08:50:10;;;;;;;5.20;2.60;;;18.10;99.90;;;;;;4886616;29;20113;-81
2021/06/20 08:52:37;;;;;;;5.82;2.47;;;18.10;99.90;;;;;;4891985;29;20504;-81
2021/06/20 08:55:07;;;;;;;4.60;2.53;;;18.10;99.90;;;;;;4894050;29;20575;-82
2021/06/20 08:57:36;;;;;;;6.65;3.00;;;18.10;99.90;;;;;;4890728;29;20108;-81
2021/06/20 09:00:10;;;;;;;7.63;2.88;;;18.10;99.90;;;;;;4890150;29;20477;-82
2021/06/20 09:02:37;;;;;;;5.50;2.65;;;18.10;99.90;;;;;;4876248;29;20040;-81
2021/06/20 09:05:09;;;;;;;6.22;2.92;;;18.00;99.90;;;;;;4893856;29;20136;-82
2021/06/20 09:07:37;;;;;;;5.57;2.65;;;18.00;99.90;;;;;;4881031;29;20105;-81
2021/06/20 09:10:08;;;;;;;8.35;3.05;;;18.00;99.90;;;;;;4890413;29;20056;-81
2021/06/20 09:12:56;;;;;;;5.22;2.88;;;18.00;99.90;;;;;;4886974;29;20068;-81
2021/06/20 09:15:29;;;;;;;8.00;3.35;;;17.90;99.90;;;;;;4904163;29;20055;-81
2021/06/20 09:17:59;;;;;;;4.18;2.70;;;17.90;99.90;;;;;;4892387;29;20057;-81
2021/06/20 09:20:38;;;;;;;8.25;3.00;;;17.90;99.90;;;;;;4887696;29;20112;-81
2021/06/20 09:23:11;;;;;;;4.72;2.65;;;17.90;99.90;;;;;;4888606;29;20512;-81
2021/06/20 09:25:43;;;;;;;5.20;2.70;;;17.90;99.90;;;;;;4888563;29;20049;-81
2021/06/20 09:28:13;;;;;;;6.63;2.75;;;17.90;99.90;;;;;;4883809;29;20524;-81
2021/06/20 09:30:51;;;;;;;5.95;2.70;;;17.90;99.90;;;;;;4889014;29;20123;-82
2021/06/20 09:33:22;;;;;;;5.78;2.60;;;18.00;99.90;;;;;;4891969;29;20423;-81
2021/06/20 09:35:52;;;;;;;4.28;2.30;;;18.00;99.90;;;;;;4887047;29;20464;-83
2021/06/20 09:38:34;;;;;;;4.80;2.55;;;18.10;99.90;;;;;;4897318;29;20057;-81
2021/06/20 09:41:09;;;;;;;6.15;2.58;;;18.10;99.90;;;;;;4889157;29;20061;-80
2021/06/20 09:43:38;;;;;;;5.18;2.58;;;18.20;99.90;;;;;;4889446;29;20132;-80
2021/06/20 09:46:09;;;;;;;4.72;1.70;;;18.30;99.90;;;;;;4890476;29;20064;-85
2021/06/20 09:48:37;;;;;;;2.25;1.55;;;18.30;99.90;;;;;;4893326;29;20055;-83
2021/06/20 09:51:18;;;;;;;6.00;2.10;;;18.30;99.90;;;;;;4884896;29;20052;-84
2021/06/20 09:53:48;;;;;;;7.93;1.98;;;18.40;99.90;;;;;;4890926;29;20048;-86
2021/06/20 09:56:25;;;;;;;2.42;1.52;;;18.40;99.90;;;;;;4907191;29;20060;-87
2021/06/20 09:59:01;;;;;;;2.30;1.70;;;18.40;99.90;;;;;;4888674;29;20512;-86
2021/06/20 10:01:30;;;;;;;2.35;1.73;;;18.50;99.90;;;;;;4891959;29;20104;-82
2021/06/20 10:03:58;;;;;;;5.18;1.80;;;18.50;99.90;;;;;;4889429;29;20056;-82
2021/06/20 10:06:25;;;;;;;3.75;1.70;;;18.60;99.90;;;;;;4878367;29;20105;-82
2021/06/20 10:08:52;;;;;;;3.45;1.73;;;18.70;99.90;;;;;;4893467;29;20505;-81
2021/06/20 10:11:20;;;;;;;4.25;1.92;;;18.80;99.90;;;;;;4892505;29;20056;-88
2021/06/20 10:13:47;;;;;;;4.03;1.88;;;18.80;99.90;;;;;;4884481;29;20584;-80
2021/06/20 10:16:18;;;;;;;3.13;2.10;;;18.80;99.90;;;;;;4885497;29;20223;-84
2021/06/20 10:19:10;;;;;;;3.00;1.80;;;18.80;99.90;;;;;;4906837;29;20534;-85
2021/06/20 10:21:40;;;;;;;3.05;1.80;;;18.70;99.90;;;;;;4885220;29;20567;-82
2021/06/20 10:24:10;;;;;;;3.70;1.60;;;18.60;99.90;;;;;;4887533;29;20054;-80
2021/06/20 10:26:40;;;;;;;3.22;1.63;;;18.50;99.90;;;;;;4893693;29;20125;-80
2021/06/20 10:29:21;;;;;;;4.65;2.17;;;18.50;99.90;;;;;;4895432;29;20504;-80
2021/06/20 10:31:49;;;;;;;4.75;1.70;;;18.50;99.90;;;;;;4895845;29;20045;-80
2021/06/20 10:34:27;;;;;;;2.05;1.60;;;18.50;99.90;;;;;;4890351;29;20060;-79
2021/06/20 10:36:57;;;;;;;5.03;1.90;;;18.40;99.90;;;;;;4906064;29;20056;-79
2021/06/20 10:39:25;;;;;;;2.92;1.80;;;18.40;99.90;;;;;;4893441;29;20583;-79
2021/06/20 10:42:04;;;;;;;4.50;1.80;;;18.40;99.90;;;;;;4897762;29;20076;-80
2021/06/20 10:44:50;;;;;;;3.33;1.77;;;18.40;99.90;;;;;;4884767;29;20098;-80
2021/06/20 10:47:26;;;;;;;3.72;1.70;;;18.30;99.90;;;;;;4907314;29;20159;-80
2021/06/20 10:50:15;;;;;;;2.38;1.55;;;18.30;99.90;;;;;;4883167;29;20065;-80
2021/06/20 10:52:57;;;;;;;3.33;1.67;;;18.20;99.90;;;;;;4887822;29;20520;-80
2021/06/20 10:55:25;;;;;;;2.67;1.65;;;18.30;99.90;;;;;;4889914;29;20107;-81
2021/06/20 10:57:56;;;;;;;3.25;1.90;;;18.40;99.90;;;;;;4895701;29;20509;-79
2021/06/20 11:00:35;;;;;;;3.05;1.50;;;18.50;99.90;;;;;;4897907;29;20576;-80
2021/06/20 11:03:22;;;;;;;3.47;1.80;;;18.60;99.90;;;;;;4891083;29;20052;-80
2021/06/20 11:05:59;;;;;;;1.63;1.27;;;18.70;99.90;;;;;;4904734;29;20040;-80
2021/06/20 11:08:37;;;;;;;2.42;1.50;;;18.80;99.90;;;;;;4889430;29;20429;-80
2021/06/20 11:11:13;;;;;;;2.60;1.50;;;18.90;99.90;;;;;;4895854;29;20056;-81
2021/06/20 11:13:43;;;;;;;3.88;1.90;;;18.90;99.90;;;;;;4889826;29;20060;-80
2021/06/20 11:16:13;;;;;;;3.97;1.60;;;18.90;99.90;;;;;;4890980;29;20108;-81
2021/06/20 11:18:42;;;;;;;4.38;1.90;;;18.90;99.90;;;;;;4886247;29;20060;-81
2021/06/20 11:21:09;;;;;;;5.70;1.60;;;18.90;99.90;;;;;;4902017;29;20052;-81
2021/06/20 11:23:41;;;;;;;2.33;1.35;;;18.90;99.90;;;;;;4889430;29;20102;-80
2021/06/20 11:26:08;;;;;;;4.22;2.03;;;18.90;99.90;;;;;;4885955;29;20100;-80
2021/06/20 11:28:35;;;;;;;3.15;1.70;;;18.90;99.90;;;;;;4892465;29;20115;-79
2021/06/20 11:31:08;;;;;;;2.85;1.60;;;19.00;99.90;;;;;;4890582;29;20064;-80
2021/06/20 11:33:36;;;;;;;3.90;1.80;;;19.00;99.90;;;;;;4888560;29;20053;-82
2021/06/20 11:36:03;;;;;;;2.35;1.40;;;19.00;99.90;;;;;;4907262;29;20111;-84
2021/06/20 11:38:35;;;;;;;2.40;1.40;;;18.90;99.90;;;;;;4888332;29;20104;-81
2021/06/20 11:41:09;;;;;;;4.38;1.60;;;18.90;99.90;;;;;;4884441;29;20056;-81
2021/06/20 11:43:59;;;;;;;4.25;1.90;;;18.90;99.90;;;;;;4901617;29;20066;-80
2021/06/20 11:46:32;;;;;;;5.40;1.92;;;18.90;99.90;;;;;;4886459;29;20072;-81
2021/06/20 11:49:01;;;;;;;2.78;1.48;;;19.00;99.90;;;;;;4883811;29;20124;-81
2021/06/20 11:51:32;;;;;;;5.70;1.60;;;19.10;99.90;;;;;;4887829;29;20116;-81
2021/06/20 11:54:10;;;;;;;5.30;1.63;;;19.10;99.90;;;;;;4889392;29;20049;-82
2021/06/20 11:56:39;;;;;;;4.03;1.88;;;19.20;99.90;;;;;;4902520;29;20488;-81
2021/06/20 11:59:07;;;;;;;3.05;1.70;;;19.30;99.90;;;;;;4890469;29;20080;-82
2021/06/20 12:01:49;;;;;;;32.50;17.42;;;19.40;99.90;;;;;;4892368;29;20061;-82
2021/06/20 12:04:20;;;;;;;9.77;4.97;;;19.40;99.90;;;;;;4886680;29;20060;-81
2021/06/20 12:06:49;;;;;;;21.95;9.50;;;19.40;99.90;;;;;;4886260;29;20580;-81
2021/06/20 12:09:16;;;;;;;13.85;7.35;;;19.40;99.90;;;;;;4903445;29;20052;-81
2021/06/20 12:11:44;;;;;;;30.45;13.88;;;19.40;99.90;;;;;;4888110;29;20052;-81
2021/06/20 12:14:25;;;;;;;4.13;1.77;;;19.50;99.90;;;;;;4891377;29;20052;-82
2021/06/20 12:16:53;;;;;;;2.85;1.55;;;19.50;99.90;;;;;;4889768;29;20053;-82
2021/06/20 12:19:23;;;;;;;3.83;1.42;;;19.60;99.90;;;;;;4887992;29;20191;-82
2021/06/20 12:22:24;;;;;;;4.28;2.15;;;19.80;99.90;;;;;;4895124;29;20052;-82
2021/06/20 12:24:58;;;;;;;2.65;1.50;;;19.90;99.90;;;;;;4890337;29;20057;-82
2021/06/20 12:27:36;;;;;;;1.83;1.30;;;20.00;99.90;;;;;;4886632;29;20045;-81
2021/06/20 12:30:17;;;;;;;2.30;1.30;;;20.10;99.90;;;;;;4905190;29;20068;-82
2021/06/20 12:32:45;;;;;;;8.02;4.78;;;20.20;99.90;;;;;;4890300;29;20053;-81
2021/06/20 12:35:25;;;;;;;2.22;1.50;;;20.30;99.90;;;;;;4886690;29;20084;-82
2021/06/20 12:37:54;;;;;;;3.63;1.40;;;20.40;99.90;;;;;;4893803;29;20117;-81
2021/06/20 12:40:21;;;;;;;;;;;20.50;99.90;;;;;;4886679;29;20060;-82
2021/06/20 12:42:51;;;;;;;4.63;2.30;;;20.50;99.90;;;;;;4891448;29;19924;-84
2021/06/20 12:45:26;;;;;;;3.85;1.60;;;20.50;99.90;;;;;;4891245;29;20072;-83
2021/06/20 12:47:57;;;;;;;3.97;1.58;;;20.60;99.90;;;;;;4884571;29;20080;-83
2021/06/20 12:50:29;;;;;;;4.55;2.08;;;20.70;99.90;;;;;;4891442;29;20108;-82
2021/06/20 12:52:57;;;;;;;2.28;1.48;;;20.80;99.90;;;;;;4893233;29;20087;-83
2021/06/20 12:55:32;;;;;;;1.52;1.27;;;20.80;99.90;;;;;;4893690;29;20059;-83
2021/06/20 12:58:01;;;;;;;2.50;1.40;;;21.00;99.90;;;;;;4887761;29;20080;-81
2021/06/20 13:00:31;;;;;;;1.65;1.30;;;21.10;99.90;;;;;;4890150;29;20069;-83
2021/06/20 13:03:00;;;;;;;4.68;2.25;;;21.20;99.90;;;;;;4892359;29;20755;-83
2021/06/20 13:05:41;;;;;;;2.97;1.40;;;21.30;99.90;;;;;;4891610;29;20568;-83
2021/06/20 13:08:09;;;;;;;2.75;1.95;;;21.40;99.90;;;;;;4893187;29;20089;-84
2021/06/20 13:10:40;;;;;;;2.67;1.40;;;21.40;99.90;;;;;;4880914;29;20484;-84
2021/06/20 13:13:07;;;;;;;5.72;2.10;;;21.50;99.90;;;;;;4889817;29;20061;-83
2021/06/20 13:15:33;;;;;;;3.40;1.52;;;21.60;99.90;;;;;;4894927;29;20052;-84
2021/06/20 13:18:01;;;;;;;2.47;1.63;;;21.70;99.90;;;;;;4894819;29;20060;-82
2021/06/20 13:20:29;;;;;;;3.00;1.80;;;21.70;99.90;;;;;;4888465;29;20056;-82
2021/06/20 13:22:57;;;;;;;4.90;2.22;;;21.70;99.90;;;;;;4892020;29;20121;-84
2021/06/20 13:25:25;;;;;;;;;;;21.80;99.90;;;;;;4882128;29;20057;-85
2021/06/20 13:27:52;;;;;;;4.75;1.45;;;21.90;99.90;;;;;;4884821;29;19923;-85
2021/06/20 13:30:20;;;;;;;3.45;1.67;;;21.80;99.90;;;;;;4902411;29;20049;-82
2021/06/20 13:32:47;;;;;;;2.30;1.50;;;21.90;99.90;;;;;;4886389;29;20456;-83
2021/06/20 13:35:16;;;;;;;3.42;1.70;;;22.00;99.90;;;;;;4898546;29;20096;-81
2021/06/20 13:37:46;;;;;;;2.33;1.40;;;22.00;99.90;;;;;;4890567;29;20059;-83
2021/06/20 13:40:16;;;;;;;2.80;1.55;;;22.20;99.90;;;;;;4881168;29;20057;-82
2021/06/20 13:42:43;;;;;;;2.55;1.40;;;22.20;99.90;;;;;;4885891;29;20124;-84
2021/06/20 13:45:13;;;;;;;5.28;1.80;;;22.20;99.90;;;;;;4887047;29;20520;-83
2021/06/20 13:47:41;;;;;;;5.68;1.95;;;22.20;99.90;;;;;;4886980;29;20056;-83
2021/06/20 13:50:08;;;;;;;3.25;1.67;;;22.20;99.90;;;;;;4882792;29;20131;-83
2021/06/20 13:52:36;;;;;;;2.80;1.67;;;22.10;99.90;;;;;;4888824;29;20427;-83
2021/06/20 13:55:08;;;;;;;3.85;2.20;;;22.10;99.90;;;;;;4884253;29;20057;-83
2021/06/20 13:57:36;;;;;;;2.15;1.75;;;21.90;99.90;;;;;;4883333;29;20056;-84
2021/06/20 14:00:08;;;;;;;4.28;1.83;;;21.80;99.90;;;;;;4886834;29;20116;-84
2021/06/20 14:02:35;;;;;;;1.98;1.77;;;21.70;99.90;;;;;;4901764;29;20051;-82
2021/06/20 14:05:04;;;;;;;2.97;2.22;;;21.60;99.90;;;;;;4894766;29;20139;-83
2021/06/20 14:07:31;;;;;;;;;;;21.50;99.90;;;;;;4889444;29;20045;-83
2021/06/20 14:09:58;;;;;;;3.67;1.92;;;21.40;99.90;;;;;;4899044;29;19994;-83
2021/06/20 14:12:26;;;;;;;3.53;2.25;;;21.40;99.90;;;;;;4887087;29;20143;-83
2021/06/20 14:14:53;;;;;;;4.10;2.15;;;21.30;99.90;;;;;;4901538;29;20151;-85
2021/06/20 14:17:20;;;;;;;3.55;2.10;;;21.30;99.90;;;;;;4884730;29;20646;-82
2021/06/20 14:19:46;;;;;;;4.55;2.35;;;21.20;99.90;;;;;;4892406;29;20049;-82
2021/06/20 14:22:13;;;;;;;3.92;1.80;;;21.10;99.90;;;;;;4889018;29;20116;-83
2021/06/20 14:24:43;;;;;;;3.38;2.33;;;21.00;99.90;;;;;;4889371;29;20086;-83
2021/06/20 14:27:11;;;;;;;2.63;1.95;;;21.00;99.90;;;;;;4904068;29;20052;-83
2021/06/20 14:29:38;;;;;;;5.65;2.17;;;21.00;99.90;;;;;;4888312;29;20093;-83
2021/06/20 14:32:06;;;;;;;4.20;2.05;;;21.00;99.90;;;;;;4892370;29;20121;-83
2021/06/20 14:34:51;;;;;;;3.85;2.03;;;20.90;99.90;;;;;;4890124;29;20049;-82
2021/06/20 14:37:21;;;;;;;4.38;2.38;;;21.00;99.90;;;;;;4884757;29;20056;-83
2021/06/20 14:39:49;;;;;;;4.28;2.15;;;21.00;99.90;;;;;;4890145;29;20048;-83
2021/06/20 14:42:17;;;;;;;3.60;2.50;;;21.00;99.90;;;;;;4904850;29;20057;-83
2021/06/20 14:44:45;;;;;;;4.85;2.17;;;20.90;99.90;;;;;;4895427;29;20531;-84
2021/06/20 14:47:12;;;;;;;2.40;1.92;;;20.90;99.90;;;;;;4891748;29;20056;-83
2021/06/20 14:49:39;;;;;;;3.72;2.28;;;20.90;99.90;;;;;;4892876;29;20101;-83
2021/06/20 14:52:07;;;;;;;4.35;2.05;;;20.90;99.90;;;;;;4888158;29;20647;-83
2021/06/20 14:54:35;;;;;;;2.83;2.05;;;20.90;99.90;;;;;;4887948;29;20065;-83
2021/06/20 14:57:03;;;;;;;3.40;2.20;;;20.90;99.90;;;;;;4888525;29;21004;-82
2021/06/20 14:59:29;;;;;;;5.85;2.17;;;20.90;99.90;;;;;;4886730;29;20105;-84
2021/06/20 15:01:56;;;;;;;3.75;2.30;;;20.90;99.90;;;;;;4891464;29;20115;-83
2021/06/20 15:04:25;;;;;;;2.75;2.03;;;20.90;99.90;;;;;;4902654;29;20060;-83
2021/06/20 15:06:53;;;;;;;;;;;20.90;99.90;;;;;;4890822;29;20049;-83
2021/06/20 15:09:20;;;;;;;4.22;2.20;;;20.90;99.90;;;;;;4890526;29;20405;-83
2021/06/20 15:11:48;;;;;;;2.97;1.90;;;20.80;99.90;;;;;;4886972;29;20052;-84
2021/06/20 15:14:15;;;;;;;2.70;1.80;;;20.80;99.90;;;;;;4888507;29;20520;-83
2021/06/20 15:16:43;;;;;;;3.58;1.88;;;20.80;99.90;;;;;;4887327;29;20060;-84
2021/06/20 15:19:10;;;;;;;2.92;1.83;;;20.80;99.90;;;;;;4887795;29;20104;-83
2021/06/20 15:21:37;;;;;;;1.90;1.70;;;20.70;99.90;;;;;;4901979;29;20747;-85
2021/06/20 15:24:04;;;;;;;4.95;1.63;;;20.70;99.90;;;;;;4902705;29;20137;-83
2021/06/20 15:26:31;;;;;;;3.42;1.60;;;20.60;99.90;;;;;;4887209;29;20128;-82
2021/06/20 15:29:00;;;;;;;3.22;1.55;;;20.50;99.90;;;;;;4889327;29;20056;-84
2021/06/20 15:31:28;;;;;;;2.97;1.52;;;20.50;99.90;;;;;;4898680;29;20172;-84
2021/06/20 15:33:55;;;;;;;3.30;1.40;;;20.40;99.90;;;;;;4886295;29;20088;-83
2021/06/20 15:36:24;;;;;;;3.25;1.60;;;20.40;99.90;;;;;;4883985;29;20405;-83
2021/06/20 15:38:51;;;;;;;1.75;1.42;;;20.30;99.90;;;;;;4889442;29;20381;-84
2021/06/20 15:41:22;;;;;;;2.53;1.55;;;20.30;99.90;;;;;;4882977;29;20061;-83
2021/06/20 15:43:57;;;;;;;2.35;1.42;;;20.20;99.90;;;;;;4887791;29;20112;-83
2021/06/20 15:46:27;;;;;;;2.15;1.40;;;20.20;99.90;;;;;;4880573;29;20052;-83
2021/06/20 15:48:57;;;;;;;2.80;1.80;;;20.20;99.90;;;;;;4888485;29;20053;-84
2021/06/20 15:51:25;;;;;;;3.47;1.70;;;20.20;99.90;;;;;;4886634;29;20061;-83
2021/06/20 15:53:52;;;;;;;1.77;1.45;;;20.30;99.90;;;;;;4890614;29;20132;-84
2021/06/20 15:56:22;;;;;;;2.03;1.55;;;20.30;99.90;;;;;;4885154;29;20129;-85
2021/06/20 15:58:49;;;;;;;;;;;20.30;99.90;;;;;;4892412;29;20061;-84
2021/06/20 16:01:18;;;;;;;3.63;1.92;;;20.30;99.90;;;;;;4883459;29;19975;-84
2021/06/20 16:03:45;;;;;;;1.85;1.48;;;20.30;99.90;;;;;;4892340;29;20051;-83
2021/06/20 16:06:12;;;;;;;3.00;1.50;;;20.30;99.90;;;;;;4899206;29;20045;-83
2021/06/20 16:08:39;;;;;;;1.73;1.45;;;20.40;99.90;;;;;;4892831;29;20056;-83
2021/06/20 16:11:06;;;;;;;2.15;1.40;;;20.40;99.90;;;;;;4892075;29;20052;-82
2021/06/20 16:13:34;;;;;;;2.75;1.58;;;20.30;99.90;;;;;;4889463;29;20053;-83
2021/06/20 16:16:01;;;;;;;3.10;1.70;;;20.30;99.90;;;;;;4899834;29;20061;-83
2021/06/20 16:18:28;;;;;;;3.10;1.77;;;20.30;99.90;;;;;;4889878;29;20059;-84
2021/06/20 16:20:55;;;;;;;2.80;1.80;;;20.20;99.90;;;;;;4888451;29;20212;-83
2021/06/20 16:23:23;;;;;;;4.40;2.00;;;20.10;99.90;;;;;;4883980;29;20045;-84
2021/06/20 16:25:49;;;;;;;4.78;2.42;;;20.00;99.90;;;;;;4889039;29;20045;-84
2021/06/20 16:28:17;;;;;;;3.65;2.40;;;19.90;99.90;;;;;;4891920;29;20572;-84
2021/06/20 16:30:45;;;;;;;3.67;2.47;;;19.80;99.90;;;;;;4888189;29;20079;-85
2021/06/20 16:33:13;;;;;;;2.70;2.45;;;19.70;99.90;;;;;;4885295;29;20077;-84
2021/06/20 16:35:41;;;;;;;3.90;2.22;;;19.60;99.90;;;;;;4906362;29;20052;-84
2021/06/20 16:38:08;;;;;;;4.68;2.20;;;19.60;99.90;;;;;;4900264;29;20068;-84
2021/06/20 16:40:36;;;;;;;2.45;2.03;;;19.60;99.90;;;;;;4888083;29;20723;-82
2021/06/20 16:43:03;;;;;;;7.57;2.80;;;19.50;99.90;;;;;;4883882;29;20516;-84
2021/06/20 16:45:30;;;;;;;3.13;2.28;;;19.50;99.90;;;;;;4887423;29;20689;-83
2021/06/20 16:47:57;;;;;;;5.35;2.88;;;19.40;99.90;;;;;;4886057;29;20049;-82
2021/06/20 16:50:24;;;;;;;5.53;3.03;;;19.40;99.90;;;;;;4886066;29;20643;-82
2021/06/20 16:52:52;;;;;;;4.22;3.10;;;19.30;99.90;;;;;;4890890;29;20418;-83
2021/06/20 16:55:19;;;;;;;3.70;2.85;;;19.20;99.90;;;;;;4900734;29;20045;-83
2021/06/20 16:57:46;;;;;;;3.50;2.95;;;19.20;99.90;;;;;;4902054;29;20503;-82
2021/06/20 17:00:15;;;;;;;4.95;3.40;;;19.10;99.90;;;;;;4888484;29;20096;-84
2021/06/20 17:02:43;;;;;;;6.50;3.65;;;19.10;99.90;;;;;;4887189;29;20132;-82
2021/06/20 17:05:11;;;;;;;4.50;3.50;;;19.00;99.90;;;;;;4900573;29;20045;-83
2021/06/20 17:07:38;;;;;;;4.47;3.78;;;18.90;99.90;;;;;;4891906;29;20179;-82
2021/06/20 17:10:07;;;;;;;5.95;3.70;;;18.90;99.90;;;;;;4905092;29;20112;-82
2021/06/20 17:12:34;;;;;;;5.22;4.28;;;18.80;99.90;;;;;;4883922;29;20053;-83
2021/06/20 17:15:01;;;;;;;6.95;4.95;;;18.80;99.90;;;;;;4890099;29;20060;-82
2021/06/20 17:17:28;;;;;;;8.90;7.05;;;18.70;99.90;;;;;;4886032;29;20057;-82
2021/06/20 17:19:55;;;;;;;10.45;8.43;;;18.70;99.90;;;;;;4892475;29;20128;-82
2021/06/20 17:22:22;;;;;;;10.32;6.90;;;18.70;99.90;;;;;;4888954;29;20053;-83
2021/06/20 17:24:49;;;;;;;10.25;9.25;;;18.70;99.90;;;;;;4888978;29;20052;-83
2021/06/20 17:27:15;;;;;;;6.22;5.32;;;18.70;99.90;;;;;;4885407;29;20594;-84
2021/06/20 17:29:42;;;;;;;4.53;4.05;;;18.60;99.90;;;;;;4887898;29;20580;-82
2021/06/20 17:32:10;;;;;;;8.30;5.30;;;18.50;99.90;;;;;;4902587;29;20052;-83
2021/06/20 17:34:41;;;;;;;5.75;5.20;;;18.40;99.90;;;;;;4887078;29;20465;-83
2021/06/20 17:37:09;;;;;;;6.00;4.40;;;18.40;99.90;;;;;;4893333;29;20056;-82
2021/06/20 17:39:37;;;;;;;5.30;4.53;;;18.30;99.90;;;;;;4879442;29;20049;-83
2021/06/20 17:42:07;;;;;;;6.03;5.43;;;18.30;99.90;;;;;;4889539;29;20436;-90
2021/06/20 17:44:35;;;;;;;4.40;4.00;;;18.20;99.90;;;;;;4889431;29;20060;-83
2021/06/20 17:47:04;;;;;;;6.53;4.20;;;18.10;99.90;;;;;;4869319;29;20056;-82
2021/06/20 17:49:31;;;;;;;5.82;4.40;;;18.00;99.90;;;;;;4884524;29;20064;-84
2021/06/20 17:51:58;;;;;;;8.65;5.43;;;17.90;99.90;;;;;;4887222;29;20151;-86
2021/06/20 17:54:25;;;;;;;6.07;5.30;;;17.90;99.90;;;;;;4886950;29;20472;-82
2021/06/20 17:56:52;;;;;;;7.40;5.32;;;17.90;99.90;;;;;;4882912;29;20060;-83
2021/06/20 17:59:19;;;;;;;7.55;5.60;;;17.80;99.90;;;;;;4900834;29;20887;-83
2021/06/20 18:01:46;;;;;;;8.38;5.80;;;17.70;99.90;;;;;;4889581;29;20125;-85
2021/06/20 18:04:13;;;;;;;8.52;4.97;;;17.60;99.90;;;;;;4903012;29;20049;-83
2021/06/20 18:06:40;;;;;;;7.72;5.53;;;17.60;99.90;;;;;;4889830;29;20049;-84
2021/06/20 18:09:09;;;;;;;6.82;5.68;;;17.50;99.90;;;;;;4892605;29;20060;-84
2021/06/20 18:11:37;;;;;;;7.28;5.63;;;17.50;99.90;;;;;;4891829;29;20056;-84
2021/06/20 18:14:05;;;;;;;8.00;5.53;;;17.50;99.90;;;;;;4905534;29;20104;-85
2021/06/20 18:16:33;;;;;;;10.60;6.27;;;17.40;99.90;;;;;;4885985;29;20057;-84
2021/06/20 18:19:00;;;;;;;7.43;5.18;;;17.30;99.90;;;;;;4886198;29;20406;-82
2021/06/20 18:21:27;;;;;;;10.32;5.93;;;17.30;99.90;;;;;;4898568;29;20112;-83
2021/06/20 18:23:54;;;;;;;10.15;6.07;;;17.30;99.90;;;;;;4892292;29;20045;-83
2021/06/20 18:26:21;;;;;;;6.85;5.78;;;17.30;99.90;;;;;;4891186;29;20053;-85
2021/06/20 18:28:48;;;;;;;6.22;5.32;;;17.30;99.90;;;;;;4882330;29;20049;-85
2021/06/20 18:31:15;;;;;;;7.65;5.32;;;17.20;99.90;;;;;;4889339;29;20108;-86
2021/06/20 18:33:42;;;;;;;8.13;5.53;;;17.20;99.90;;;;;;4887819;29;20055;-85
2021/06/20 18:36:09;;;;;;;6.30;5.47;;;17.10;99.90;;;;;;4887237;29;20053;-83
2021/06/20 18:38:36;;;;;;;6.75;5.85;;;17.10;99.90;;;;;;4886047;29;20053;-86
2021/06/20 18:41:03;;;;;;;6.20;5.57;;;17.10;99.90;;;;;;4891627;29;20049;-85
2021/06/20 18:43:30;;;;;;;8.38;6.10;;;17.10;99.90;;;;;;4902938;29;20045;-86
2021/06/20 18:45:57;;;;;;;8.48;6.10;;;17.00;99.90;;;;;;4887450;29;20496;-84
2021/06/20 18:48:24;;;;;;;7.00;5.60;;;17.00;99.90;;;;;;4891238;29;20566;-84
2021/06/20 18:50:55;;;;;;;10.75;5.68;;;17.00;99.90;;;;;;4890708;29;20057;-83
2021/06/20 18:53:23;;;;;;;6.07;5.13;;;17.00;99.90;;;;;;4888527;29;20049;-82
2021/06/20 18:55:51;;;;;;;8.73;5.68;;;17.00;99.90;;;;;;4893795;29;20056;-83
2021/06/20 18:58:19;;;;;;;7.60;5.82;;;17.00;99.90;;;;;;4888942;29;20111;-83
2021/06/20 19:00:48;;;;;;;6.38;5.38;;;17.00;99.90;;;;;;4892096;29;20049;-83
2021/06/20 19:03:17;;;;;;;6.88;5.32;;;17.00;99.90;;;;;;4908212;29;20113;-83
2021/06/20 19:05:48;;;;;;;8.43;5.85;;;17.00;99.90;;;;;;4904727;29;20052;-83
2021/06/20 19:08:16;;;;;;;8.07;5.75;;;16.90;99.90;;;;;;4886430;29;20048;-82
2021/06/20 19:10:43;;;;;;;9.98;5.57;;;16.90;99.90;;;;;;4888297;29;20774;-83
2021/06/20 19:13:12;;;;;;;6.90;6.20;;;16.90;99.90;;;;;;4893676;29;20056;-84
2021/06/20 19:15:40;;;;;;;6.85;6.20;;;16.90;99.90;;;;;;4891600;29;20060;-84
2021/06/20 19:18:07;;;;;;;7.85;5.30;;;16.90;99.90;;;;;;4893354;29;20109;-84
2021/06/20 19:20:34;;;;;;;18.70;6.47;;;16.90;99.90;;;;;;4883192;29;20075;-85
2021/06/20 19:23:04;;;;;;;7.93;6.00;;;16.90;99.90;;;;;;4894942;29;20061;-83
2021/06/20 19:25:32;;;;;;;9.07;6.25;;;16.90;99.90;;;;;;4900757;29;20045;-84
2021/06/20 19:28:04;;;;;;;6.72;6.13;;;16.80;99.90;;;;;;4887296;29;20052;-83
2021/06/20 19:30:31;;;;;;;8.35;6.70;;;16.80;99.90;;;;;;4892495;29;20045;-83
2021/06/20 19:32:58;;;;;;;9.30;6.60;;;16.80;99.90;;;;;;4906886;29;20116;-85
2021/06/20 19:35:25;;;;;;;8.48;7.10;;;16.70;99.90;;;;;;4888664;29;20065;-85
2021/06/20 19:37:53;;;;;;;11.07;7.07;;;16.70;99.90;;;;;;4907403;29;20065;-84
2021/06/20 19:40:24;;;;;;;8.77;6.97;;;16.70;99.90;;;;;;4886900;29;20100;-82
2021/06/20 19:42:52;;;;;;;10.43;7.95;;;16.70;99.90;;;;;;4889705;29;20056;-82
2021/06/20 19:45:23;;;;;;;9.77;7.60;;;16.70;99.90;;;;;;4883145;29;20122;-82
2021/06/20 19:47:51;;;;;;;8.20;7.13;;;16.70;99.90;;;;;;4884381;29;20127;-81
2021/06/20 19:50:19;;;;;;;9.98;8.27;;;16.70;99.90;;;;;;4884882;29;20053;-85
2021/06/20 19:52:51;;;;;;;10.95;8.25;;;16.70;99.90;;;;;;4892124;29;20052;-83
2021/06/20 19:55:19;;;;;;;10.55;8.20;;;16.70;99.90;;;;;;4890179;29;20060;-83
2021/06/20 19:57:56;;;;;;;10.88;9.48;;;16.70;99.90;;;;;;4905806;29;20060;-83
2021/06/20 20:00:29;;;;;;;10.77;8.55;;;16.70;99.90;;;;;;4884166;29;20068;-81
2021/06/20 20:02:57;;;;;;;9.95;8.65;;;16.70;99.90;;;;;;4887570;29;20485;-83
2021/06/20 20:05:24;;;;;;;11.40;9.55;;;16.70;99.90;;;;;;4890564;29;20504;-82
2021/06/20 20:07:52;;;;;;;11.75;9.00;;;16.70;99.90;;;;;;4891936;29;20060;-84
2021/06/20 20:10:25;;;;;;;10.85;8.32;;;16.70;99.90;;;;;;4892308;29;20452;-84
2021/06/20 20:12:52;;;;;;;10.95;8.45;;;16.60;99.90;;;;;;4893010;29;20528;-81
2021/06/20 20:15:21;;;;;;;9.48;7.25;;;16.60;99.90;;;;;;4890718;29;20057;-83
2021/06/20 20:17:48;;;;;;;10.57;7.45;;;16.60;99.90;;;;;;4893833;29;20540;-83
2021/06/20 20:20:18;;;;;;;9.52;7.28;;;16.60;99.90;;;;;;4890021;29;20056;-83
2021/06/20 20:22:47;;;;;;;8.88;7.20;;;16.60;99.90;;;;;;4895376;29;20408;-82
2021/06/20 20:25:14;;;;;;;7.40;6.70;;;16.60;99.90;;;;;;4886039;29;20068;-84
2021/06/20 20:27:41;;;;;;;10.27;6.90;;;16.50;99.90;;;;;;4889118;29;20520;-82
2021/06/20 20:30:11;;;;;;;11.52;7.15;;;16.50;99.90;;;;;;4893060;29;20108;-84